createdAt,value
2019-05-14T00:00:38.596Z,4.01
2019-05-14T00:04:42.230Z,3.95
2019-05-14T00:08:44.081Z,3.98
2019-05-14T00:12:45.992Z,3.88
2019-05-14T00:16:47.901Z,3.80
2019-05-14T00:20:51.187Z,3.77
2019-05-14T00:24:53.432Z,3.71
2019-05-14T00:28:56.389Z,3.69
2019-05-14T00:32:58.277Z,3.59
2019-05-14T00:37:01.561Z,3.52
2019-05-14T00:41:03.911Z,3.49
2019-05-14T00:45:08.622Z,3.49
2019-05-14T00:49:11.914Z,3.47
2019-05-14T00:53:13.967Z,3.45
2019-05-14T00:57:15.869Z,3.45
2019-05-14T01:01:17.772Z,3.46
2019-05-14T01:05:21.547Z,3.46
2019-05-14T01:09:23.248Z,3.47
2019-05-14T01:13:25.517Z,3.48
2019-05-14T01:17:27.442Z,3.49
2019-05-14T01:21:31.154Z,3.48
2019-05-14T01:25:32.929Z,3.46
2019-05-14T01:29:34.850Z,3.54
2019-05-14T01:33:36.741Z,3.48
2019-05-14T01:37:38.700Z,3.55
2019-05-14T01:41:42.377Z,3.57
2019-05-14T01:45:44.489Z,3.48
2019-05-14T01:49:46.400Z,3.46
2019-05-14T01:53:48.285Z,3.46
2019-05-14T01:57:51.839Z,3.44
2019-05-14T02:01:53.830Z,3.41
2019-05-14T02:05:56.620Z,3.46
2019-05-14T02:10:00.974Z,3.24
2019-05-14T02:14:02.555Z,3.28
2019-05-14T02:18:04.482Z,3.11
2019-05-14T02:22:06.427Z,3.00
2019-05-14T02:26:08.330Z,2.98
2019-05-14T02:30:11.537Z,2.94
2019-05-14T02:34:13.450Z,2.84
2019-05-14T02:38:15.348Z,2.77
2019-05-14T02:42:19.750Z,2.69
2019-05-14T02:46:21.851Z,2.66
2019-05-14T02:50:24.101Z,2.63
2019-05-14T02:54:29.454Z,2.71
2019-05-14T02:58:30.170Z,2.62
2019-05-14T03:02:32.914Z,2.50
2019-05-14T03:06:34.878Z,2.44
2019-05-14T03:10:39.992Z,2.37
2019-05-14T03:14:40.624Z,2.33
2019-05-14T03:18:44.284Z,2.27
2019-05-14T03:23:01.716Z,2.17
2019-05-14T03:26:50.339Z,2.14
2019-05-14T03:30:53.343Z,2.04
2019-05-14T03:35:02.898Z,2.04
2019-05-14T03:39:01.616Z,2.07
2019-05-14T03:43:03.940Z,2.02
2019-05-14T03:47:09.949Z,1.99
2019-05-14T03:51:09.515Z,2.09
2019-05-14T03:55:11.636Z,2.04
2019-05-14T03:59:14.830Z,2.04
2019-05-14T04:03:19.837Z,2.07
2019-05-14T04:07:23.740Z,2.30
2019-05-14T04:11:31.117Z,2.44
2019-05-14T04:15:39.194Z,2.56
2019-05-14T04:19:42.937Z,2.55
2019-05-14T04:23:51.243Z,2.59
2019-05-14T04:27:55.199Z,2.56
2019-05-14T04:32:00.106Z,2.75
2019-05-14T04:36:02.748Z,2.81
2019-05-14T04:40:10.044Z,3.05
2019-05-14T04:44:11.140Z,3.24
2019-05-14T04:48:27.344Z,3.36
2019-05-14T04:52:20.258Z,3.51
2019-05-14T04:56:20.693Z,3.58
2019-05-14T05:00:22.583Z,3.72
2019-05-14T05:04:24.585Z,3.77
2019-05-14T05:08:26.502Z,3.88
2019-05-14T05:12:29.641Z,3.87
2019-05-14T05:16:31.663Z,4.00
2019-05-14T05:20:34.243Z,3.92
2019-05-14T05:24:38.147Z,4.17
2019-05-14T05:28:39.771Z,4.41
2019-05-14T05:32:41.653Z,4.79
2019-05-14T05:36:43.564Z,5.05
2019-05-14T05:40:45.444Z,5.30
2019-05-14T05:44:48.323Z,5.68
2019-05-14T05:48:50.334Z,5.91
2019-05-14T05:52:53.843Z,6.14
2019-05-14T05:56:58.190Z,6.42
2019-05-14T06:01:00.161Z,6.59
2019-05-14T06:05:02.139Z,6.69
2019-05-14T06:09:08.705Z,6.73
2019-05-14T06:13:13.501Z,6.77
2019-05-14T06:17:13.736Z,6.83
2019-05-14T06:21:15.615Z,6.94
2019-05-14T06:25:20.891Z,6.94
2019-05-14T06:29:21.119Z,7.16
2019-05-14T06:33:23.005Z,7.23
2019-05-14T06:37:24.910Z,7.45
2019-05-14T06:41:33.568Z,7.83
2019-05-14T06:45:35.449Z,7.86
2019-05-14T06:49:38.565Z,7.94
2019-05-14T06:53:40.964Z,8.02
2019-05-14T06:57:43.452Z,8.10
2019-05-14T07:01:45.359Z,8.16
2019-05-14T07:05:49.252Z,8.26
2019-05-14T07:09:50.997Z,8.33
2019-05-14T07:13:52.904Z,8.31
2019-05-14T07:17:54.801Z,8.31
2019-05-14T07:21:58.303Z,8.39
2019-05-14T07:26:00.403Z,8.56
2019-05-14T07:30:02.308Z,8.48
2019-05-14T07:34:05.308Z,8.55
2019-05-14T07:38:08.967Z,8.69
2019-05-14T07:42:10.801Z,8.92
2019-05-14T07:46:12.695Z,9.09
2019-05-14T07:50:15.595Z,9.23
2019-05-14T07:54:19.473Z,9.18
2019-05-14T07:58:21.085Z,9.36
2019-05-14T08:02:22.976Z,9.49
2019-05-14T08:06:28.030Z,9.65
2019-05-14T08:10:29.461Z,10.02
2019-05-14T08:14:42.639Z,10.36
2019-05-14T08:18:35.043Z,10.47
2019-05-14T08:22:38.288Z,10.63
2019-05-14T08:26:42.901Z,10.55
2019-05-14T08:30:43.952Z,10.50
2019-05-14T08:34:47.843Z,10.76
2019-05-14T08:38:50.235Z,10.98
2019-05-14T08:42:52.337Z,10.96
2019-05-14T08:46:54.241Z,10.97
2019-05-14T08:50:58.727Z,11.13
2019-05-14T08:55:11.065Z,11.39
2019-05-14T08:59:04.561Z,11.12
2019-05-14T09:03:08.477Z,10.66
2019-05-14T09:07:10.157Z,10.30
2019-05-14T09:11:12.072Z,10.07
2019-05-14T09:15:14.378Z,10.01
2019-05-14T09:19:16.285Z,10.19
2019-05-14T09:23:19.030Z,10.21
2019-05-14T09:27:21.185Z,10.28
2019-05-14T09:31:23.097Z,10.50
2019-05-14T09:35:25.006Z,10.95
2019-05-14T09:39:28.956Z,11.26
2019-05-14T09:43:30.608Z,11.36
2019-05-14T09:47:32.572Z,10.81
2019-05-14T09:51:34.488Z,10.71
2019-05-14T09:55:38.689Z,10.68
2019-05-14T09:59:40.277Z,10.73
2019-05-14T10:03:42.209Z,10.80
2019-05-14T10:07:44.116Z,10.84
2019-05-14T10:11:48.069Z,11.30
2019-05-14T10:15:49.855Z,12.17
2019-05-14T10:19:51.770Z,12.58
2019-05-14T10:23:53.723Z,12.08
2019-05-14T10:27:59.017Z,11.64
2019-05-14T10:32:00.564Z,11.38
2019-05-14T10:36:02.503Z,11.17
2019-05-14T10:40:10.100Z,11.29
2019-05-14T10:44:10.827Z,11.45
2019-05-14T10:48:12.742Z,11.61
2019-05-14T10:52:14.652Z,11.79
2019-05-14T10:56:19.319Z,12.40
2019-05-14T11:00:21.102Z,13.16
2019-05-14T11:04:23.024Z,13.27
2019-05-14T11:08:24.949Z,13.08
2019-05-14T11:12:29.489Z,12.59
2019-05-14T11:16:30.475Z,11.70
2019-05-14T11:20:32.388Z,11.63
2019-05-14T11:24:34.405Z,12.02
2019-05-14T11:28:39.233Z,12.89
2019-05-14T11:32:40.015Z,12.90
2019-05-14T11:36:41.953Z,12.75
2019-05-14T11:40:43.855Z,12.13
2019-05-14T11:44:45.852Z,11.59
2019-05-14T11:48:49.098Z,11.72
2019-05-14T11:52:51.238Z,11.74
2019-05-14T11:56:53.153Z,11.73
2019-05-14T12:00:55.075Z,11.69
2019-05-14T12:04:56.977Z,11.88
2019-05-14T12:08:59.252Z,11.34
2019-05-14T12:13:01.177Z,11.23
2019-05-14T12:17:03.264Z,11.29
2019-05-14T12:21:05.165Z,11.50
2019-05-14T12:25:08.292Z,11.76
2019-05-14T12:29:10.341Z,11.74
2019-05-14T12:33:12.554Z,11.53
2019-05-14T12:37:14.473Z,11.70
2019-05-14T12:41:19.200Z,11.80
2019-05-14T12:45:20.489Z,11.60
2019-05-14T12:49:22.404Z,11.67
2019-05-14T12:53:24.499Z,11.67
2019-05-14T12:57:26.409Z,12.08
2019-05-14T13:01:29.191Z,12.18
2019-05-14T13:05:31.093Z,12.03
2019-05-14T13:09:33.013Z,11.93
2019-05-14T13:13:34.919Z,12.30
2019-05-14T13:17:38.891Z,12.67
2019-05-14T13:21:40.469Z,12.70
2019-05-14T13:25:42.391Z,12.59
2019-05-14T13:29:44.305Z,12.50
2019-05-14T13:33:48.615Z,11.76
2019-05-14T13:37:49.845Z,11.78
2019-05-14T13:41:51.719Z,12.48
2019-05-14T13:45:53.661Z,12.45
2019-05-14T13:49:59.098Z,13.38
2019-05-14T13:54:00.400Z,13.08
2019-05-14T13:58:02.317Z,11.89
2019-05-14T14:02:04.319Z,11.22
2019-05-14T14:06:10.053Z,9.78
2019-05-14T14:10:10.780Z,9.60
2019-05-14T14:14:12.671Z,9.51
2019-05-14T14:18:14.603Z,10.34
2019-05-14T14:22:19.086Z,11.49
2019-05-14T14:26:20.191Z,12.86
2019-05-14T14:30:22.161Z,13.34
2019-05-14T14:34:24.070Z,13.84
2019-05-14T14:38:25.970Z,14.22
2019-05-14T14:42:29.744Z,13.61
2019-05-14T14:46:31.550Z,13.38
2019-05-14T14:50:33.523Z,13.89
2019-05-14T14:54:35.480Z,12.99
2019-05-14T14:58:39.349Z,12.76
2019-05-14T15:02:41.595Z,11.91
2019-05-14T15:06:43.618Z,11.75
2019-05-14T15:10:48.566Z,11.87
2019-05-14T15:14:50.298Z,12.78
2019-05-14T15:18:52.194Z,14.05
2019-05-14T15:22:54.122Z,14.55
2019-05-14T15:27:06.530Z,14.09
2019-05-14T15:31:00.732Z,12.99
2019-05-14T15:35:02.815Z,12.16
2019-05-14T15:39:09.624Z,11.33
2019-05-14T15:43:11.281Z,11.09
2019-05-14T15:47:13.209Z,11.07
2019-05-14T15:51:15.397Z,10.95
2019-05-14T15:55:18.344Z,10.49
2019-05-14T15:59:21.786Z,10.43
2019-05-14T16:03:23.711Z,10.09
2019-05-14T16:07:25.618Z,9.39
2019-05-14T16:11:29.226Z,9.05
2019-05-14T16:15:32.251Z,8.69
2019-05-14T16:19:34.145Z,8.53
2019-05-14T16:23:38.765Z,8.48
2019-05-14T16:27:40.809Z,8.41
2019-05-14T16:31:43.698Z,8.46
2019-05-14T16:35:45.692Z,8.36
2019-05-14T16:39:48.875Z,8.49
2019-05-14T16:43:51.063Z,8.46
2019-05-14T16:47:52.952Z,8.52
2019-05-14T16:51:54.854Z,8.54
2019-05-14T16:55:57.092Z,8.44
2019-05-14T16:59:59.019Z,8.39
2019-05-14T17:04:00.910Z,8.56
2019-05-14T17:08:02.889Z,8.60
2019-05-14T17:12:04.941Z,8.54
2019-05-14T17:16:08.657Z,8.39
2019-05-14T17:20:11.155Z,8.44
2019-05-14T17:24:13.066Z,8.59
2019-05-14T17:28:18.961Z,8.72
2019-05-14T17:32:20.944Z,8.72
2019-05-14T17:36:22.836Z,8.75
2019-05-14T17:40:24.775Z,8.69
2019-05-14T17:44:26.688Z,8.60
2019-05-14T17:48:28.692Z,8.66
2019-05-14T17:52:30.616Z,8.48
2019-05-14T17:56:32.568Z,8.40
2019-05-14T18:00:34.454Z,8.32
2019-05-14T18:04:36.345Z,8.34
2019-05-14T18:08:38.324Z,8.25
2019-05-14T18:12:40.262Z,8.23
2019-05-14T18:16:42.144Z,8.09
2019-05-14T18:20:44.127Z,8.06
2019-05-14T18:24:48.545Z,8.03
2019-05-14T18:28:49.649Z,7.99
2019-05-14T18:32:51.549Z,8.06
2019-05-14T18:36:53.435Z,8.08
2019-05-14T18:40:55.341Z,7.79
2019-05-14T18:44:59.030Z,7.79
2019-05-14T18:49:01.779Z,7.74
2019-05-14T18:53:03.670Z,7.71
2019-05-14T18:57:05.591Z,7.76
2019-05-14T19:01:08.086Z,7.71
2019-05-14T19:05:11.398Z,7.48
2019-05-14T19:09:13.375Z,7.43
2019-05-14T19:13:15.274Z,7.35
2019-05-14T19:17:18.710Z,7.38
2019-05-14T19:21:20.747Z,7.33
2019-05-14T19:25:22.627Z,7.33
2019-05-14T19:29:24.524Z,7.35
2019-05-14T19:33:28.533Z,7.26
2019-05-14T19:37:30.108Z,7.30
2019-05-14T19:41:32.016Z,7.33
2019-05-14T19:45:33.894Z,7.24
2019-05-14T19:49:38.055Z,7.27
2019-05-14T19:53:39.440Z,7.21
2019-05-14T19:57:41.364Z,7.08
2019-05-14T20:01:43.274Z,6.99
2019-05-14T20:05:45.788Z,6.82
2019-05-14T20:09:48.310Z,6.74
2019-05-14T20:13:50.383Z,6.69
2019-05-14T20:17:52.290Z,6.71
2019-05-14T20:21:54.183Z,6.62
2019-05-14T20:25:58.692Z,6.51
2019-05-14T20:30:00.686Z,6.54
2019-05-14T20:34:02.587Z,6.31
2019-05-14T20:38:04.468Z,6.24
2019-05-14T20:42:08.978Z,6.25
2019-05-14T20:46:10.161Z,6.15
2019-05-14T20:50:12.666Z,5.96
2019-05-14T20:54:14.569Z,5.88
2019-05-14T20:58:19.557Z,5.89
2019-05-14T21:02:20.085Z,5.72
2019-05-14T21:06:22.008Z,5.81
2019-05-14T21:10:23.907Z,5.86
2019-05-14T21:14:25.807Z,5.79
2019-05-14T21:18:35.289Z,5.76
2019-05-14T21:22:31.298Z,5.86
2019-05-14T21:26:33.188Z,5.96
2019-05-14T21:30:35.402Z,6.06
2019-05-14T21:34:38.162Z,6.11
2019-05-14T21:38:41.116Z,6.13
2019-05-14T21:42:43.153Z,6.04
2019-05-14T21:46:45.051Z,6.09
2019-05-14T21:50:46.946Z,6.02
2019-05-14T21:54:58.618Z,6.01
2019-05-14T21:59:01.330Z,5.97
2019-05-14T22:03:04.946Z,5.94
2019-05-14T22:07:08.963Z,5.87
2019-05-14T22:11:10.687Z,5.86
2019-05-14T22:15:13.121Z,5.83
2019-05-14T22:19:15.098Z,5.71
2019-05-14T22:23:18.316Z,5.61
2019-05-14T22:27:20.584Z,5.52
2019-05-14T22:31:22.470Z,5.47
2019-05-14T22:35:24.362Z,5.39
2019-05-14T22:39:26.365Z,5.29
2019-05-14T22:43:28.798Z,5.27
2019-05-14T22:47:30.837Z,5.29
2019-05-14T22:51:33.284Z,5.32
2019-05-14T22:55:35.308Z,5.30
2019-05-14T22:59:39.226Z,5.26
2019-05-14T23:03:40.806Z,5.34
2019-05-14T23:07:42.698Z,5.39
2019-05-14T23:11:44.601Z,5.45
2019-05-14T23:15:48.148Z,5.58
2019-05-14T23:19:50.141Z,5.14
2019-05-14T23:23:53.312Z,5.84
2019-05-14T23:27:55.198Z,5.92
2019-05-14T23:31:59.414Z,5.91
2019-05-14T23:36:01.382Z,5.87
2019-05-14T23:40:03.839Z,5.86
2019-05-14T23:44:08.170Z,5.95
2019-05-14T23:48:09.739Z,5.88
2019-05-14T23:52:11.834Z,5.82
2019-05-14T23:56:13.716Z,5.79
